sensor_id;sensor_type;location;lat;lon;timestamp;P1;durP1;ratioP1;P2;durP2;ratioP2
44995;SDS011;30729;49.486;10.792;2023-08-17T00:00:20;8.53;;;4.90;;
44995;SDS011;30729;49.486;10.792;2023-08-17T00:02:45;7.97;;;4.75;;
44995;SDS011;30729;49.486;10.792;2023-08-17T00:05:10;8.38;;;4.47;;
44995;SDS011;30729;49.486;10.792;2023-08-17T00:07:36;8.07;;;5.15;;
44995;SDS011;30729;49.486;10.792;2023-08-17T00:10:01;9.07;;;4.90;;
44995;SDS011;30729;49.486;10.792;2023-08-17T00:12:27;10.15;;;5.25;;
44995;SDS011;30729;49.486;10.792;2023-08-17T00:14:53;12.13;;;4.63;;
44995;SDS011;30729;49.486;10.792;2023-08-17T00:17:18;7.93;;;4.72;;
44995;SDS011;30729;49.486;10.792;2023-08-17T00:19:43;10.93;;;5.60;;
44995;SDS011;30729;49.486;10.792;2023-08-17T00:22:08;9.03;;;5.30;;
44995;SDS011;30729;49.486;10.792;2023-08-17T00:24:33;8.68;;;5.03;;
44995;SDS011;30729;49.486;10.792;2023-08-17T00:26:59;7.97;;;5.10;;
44995;SDS011;30729;49.486;10.792;2023-08-17T00:29:24;8.30;;;5.20;;
44995;SDS011;30729;49.486;10.792;2023-08-17T00:31:49;11.65;;;5.93;;
44995;SDS011;30729;49.486;10.792;2023-08-17T00:34:14;10.82;;;5.10;;
44995;SDS011;30729;49.486;10.792;2023-08-17T00:36:39;8.60;;;5.53;;
44995;SDS011;30729;49.486;10.792;2023-08-17T00:39:05;9.30;;;5.03;;
44995;SDS011;30729;49.486;10.792;2023-08-17T00:41:30;9.70;;;5.87;;
44995;SDS011;30729;49.486;10.792;2023-08-17T00:43:55;9.25;;;5.90;;
44995;SDS011;30729;49.486;10.792;2023-08-17T00:46:21;7.78;;;4.53;;
44995;SDS011;30729;49.486;10.792;2023-08-17T00:48:48;9.65;;;5.50;;
44995;SDS011;30729;49.486;10.792;2023-08-17T00:51:13;8.68;;;5.53;;
44995;SDS011;30729;49.486;10.792;2023-08-17T00:53:38;10.05;;;5.70;;
44995;SDS011;30729;49.486;10.792;2023-08-17T00:56:04;9.30;;;4.78;;
44995;SDS011;30729;49.486;10.792;2023-08-17T00:58:29;9.63;;;5.55;;
44995;SDS011;30729;49.486;10.792;2023-08-17T01:00:55;8.73;;;5.20;;
44995;SDS011;30729;49.486;10.792;2023-08-17T01:03:20;10.75;;;5.20;;
44995;SDS011;30729;49.486;10.792;2023-08-17T01:05:47;11.45;;;5.47;;
44995;SDS011;30729;49.486;10.792;2023-08-17T01:08:12;8.20;;;4.97;;
44995;SDS011;30729;49.486;10.792;2023-08-17T01:10:45;8.57;;;5.17;;
44995;SDS011;30729;49.486;10.792;2023-08-17T01:13:14;11.48;;;4.90;;
44995;SDS011;30729;49.486;10.792;2023-08-17T01:15:40;8.65;;;4.60;;
44995;SDS011;30729;49.486;10.792;2023-08-17T01:18:49;9.95;;;5.30;;
44995;SDS011;30729;49.486;10.792;2023-08-17T01:20:56;9.15;;;5.55;;
44995;SDS011;30729;49.486;10.792;2023-08-17T01:23:21;9.68;;;5.15;;
44995;SDS011;30729;49.486;10.792;2023-08-17T01:25:47;9.93;;;5.68;;
44995;SDS011;30729;49.486;10.792;2023-08-17T01:28:12;7.87;;;5.20;;
44995;SDS011;30729;49.486;10.792;2023-08-17T01:30:49;8.55;;;5.45;;
44995;SDS011;30729;49.486;10.792;2023-08-17T01:33:24;7.88;;;4.72;;
44995;SDS011;30729;49.486;10.792;2023-08-17T01:35:58;10.77;;;5.25;;
44995;SDS011;30729;49.486;10.792;2023-08-17T01:38:25;9.90;;;5.10;;
44995;SDS011;30729;49.486;10.792;2023-08-17T01:40:52;8.77;;;5.00;;
44995;SDS011;30729;49.486;10.792;2023-08-17T01:43:18;10.27;;;5.47;;
44995;SDS011;30729;49.486;10.792;2023-08-17T01:45:44;10.85;;;5.32;;
44995;SDS011;30729;49.486;10.792;2023-08-17T01:48:10;8.37;;;5.53;;
44995;SDS011;30729;49.486;10.792;2023-08-17T01:50:35;10.32;;;4.95;;
44995;SDS011;30729;49.486;10.792;2023-08-17T01:53:00;8.67;;;5.03;;
44995;SDS011;30729;49.486;10.792;2023-08-17T01:55:25;8.98;;;4.97;;
44995;SDS011;30729;49.486;10.792;2023-08-17T01:57:51;8.55;;;4.90;;
44995;SDS011;30729;49.486;10.792;2023-08-17T02:00:17;8.93;;;5.33;;
44995;SDS011;30729;49.486;10.792;2023-08-17T02:02:42;8.70;;;4.95;;
44995;SDS011;30729;49.486;10.792;2023-08-17T02:05:07;9.00;;;5.27;;
44995;SDS011;30729;49.486;10.792;2023-08-17T02:07:33;8.18;;;4.93;;
44995;SDS011;30729;49.486;10.792;2023-08-17T02:09:58;9.85;;;5.07;;
44995;SDS011;30729;49.486;10.792;2023-08-17T02:12:23;7.53;;;4.80;;
44995;SDS011;30729;49.486;10.792;2023-08-17T02:14:49;8.13;;;4.40;;
44995;SDS011;30729;49.486;10.792;2023-08-17T02:17:14;10.98;;;5.35;;
44995;SDS011;30729;49.486;10.792;2023-08-17T02:19:41;7.88;;;4.57;;
44995;SDS011;30729;49.486;10.792;2023-08-17T02:22:06;10.15;;;4.85;;
44995;SDS011;30729;49.486;10.792;2023-08-17T02:24:32;10.13;;;5.18;;
44995;SDS011;30729;49.486;10.792;2023-08-17T02:26:57;10.07;;;4.68;;
44995;SDS011;30729;49.486;10.792;2023-08-17T02:29:22;8.37;;;4.63;;
44995;SDS011;30729;49.486;10.792;2023-08-17T02:31:47;9.47;;;4.60;;
44995;SDS011;30729;49.486;10.792;2023-08-17T02:34:12;7.90;;;4.40;;
44995;SDS011;30729;49.486;10.792;2023-08-17T02:36:37;9.20;;;4.60;;
44995;SDS011;30729;49.486;10.792;2023-08-17T02:39:03;8.47;;;4.70;;
44995;SDS011;30729;49.486;10.792;2023-08-17T02:41:28;11.00;;;4.40;;
44995;SDS011;30729;49.486;10.792;2023-08-17T02:43:55;7.50;;;4.85;;
44995;SDS011;30729;49.486;10.792;2023-08-17T02:46:20;10.75;;;4.80;;
44995;SDS011;30729;49.486;10.792;2023-08-17T02:48:45;7.73;;;4.40;;
44995;SDS011;30729;49.486;10.792;2023-08-17T02:51:11;10.27;;;4.80;;
44995;SDS011;30729;49.486;10.792;2023-08-17T02:53:36;7.47;;;4.40;;
44995;SDS011;30729;49.486;10.792;2023-08-17T02:56:01;7.28;;;4.38;;
44995;SDS011;30729;49.486;10.792;2023-08-17T02:58:26;10.43;;;5.10;;
44995;SDS011;30729;49.486;10.792;2023-08-17T03:00:52;7.07;;;4.45;;
44995;SDS011;30729;49.486;10.792;2023-08-17T03:03:17;9.52;;;4.30;;
44995;SDS011;30729;49.486;10.792;2023-08-17T03:05:42;7.22;;;4.78;;
44995;SDS011;30729;49.486;10.792;2023-08-17T03:08:07;9.30;;;4.88;;
44995;SDS011;30729;49.486;10.792;2023-08-17T03:10:32;8.53;;;4.87;;
44995;SDS011;30729;49.486;10.792;2023-08-17T03:12:58;7.68;;;4.65;;
44995;SDS011;30729;49.486;10.792;2023-08-17T03:15:23;8.85;;;4.45;;
44995;SDS011;30729;49.486;10.792;2023-08-17T03:17:48;9.37;;;5.43;;
44995;SDS011;30729;49.486;10.792;2023-08-17T03:20:13;8.15;;;5.05;;
44995;SDS011;30729;49.486;10.792;2023-08-17T03:22:38;11.27;;;4.85;;
44995;SDS011;30729;49.486;10.792;2023-08-17T03:25:03;8.80;;;4.90;;
44995;SDS011;30729;49.486;10.792;2023-08-17T03:27:29;7.97;;;4.55;;
44995;SDS011;30729;49.486;10.792;2023-08-17T03:29:54;8.48;;;5.38;;
44995;SDS011;30729;49.486;10.792;2023-08-17T03:32:19;7.47;;;4.30;;
44995;SDS011;30729;49.486;10.792;2023-08-17T03:34:44;7.93;;;4.78;;
44995;SDS011;30729;49.486;10.792;2023-08-17T03:37:09;8.60;;;5.22;;
44995;SDS011;30729;49.486;10.792;2023-08-17T03:39:35;9.85;;;4.78;;
44995;SDS011;30729;49.486;10.792;2023-08-17T03:42:00;7.80;;;4.50;;
44995;SDS011;30729;49.486;10.792;2023-08-17T03:44:25;8.32;;;4.45;;
44995;SDS011;30729;49.486;10.792;2023-08-17T03:46:50;7.07;;;4.13;;
44995;SDS011;30729;49.486;10.792;2023-08-17T03:49:15;10.35;;;4.57;;
44995;SDS011;30729;49.486;10.792;2023-08-17T03:51:41;6.78;;;4.25;;
44995;SDS011;30729;49.486;10.792;2023-08-17T03:54:06;7.15;;;4.40;;
44995;SDS011;30729;49.486;10.792;2023-08-17T03:56:31;11.02;;;4.82;;
44995;SDS011;30729;49.486;10.792;2023-08-17T03:58:57;8.82;;;4.85;;
44995;SDS011;30729;49.486;10.792;2023-08-17T04:01:22;9.55;;;4.80;;
44995;SDS011;30729;49.486;10.792;2023-08-17T04:03:47;7.78;;;4.85;;
44995;SDS011;30729;49.486;10.792;2023-08-17T04:06:12;7.32;;;4.53;;
44995;SDS011;30729;49.486;10.792;2023-08-17T04:08:38;10.45;;;5.20;;
44995;SDS011;30729;49.486;10.792;2023-08-17T04:11:03;7.55;;;4.57;;
44995;SDS011;30729;49.486;10.792;2023-08-17T04:13:28;9.38;;;5.10;;
44995;SDS011;30729;49.486;10.792;2023-08-17T04:15:54;9.10;;;5.10;;
44995;SDS011;30729;49.486;10.792;2023-08-17T04:18:19;8.07;;;4.68;;
44995;SDS011;30729;49.486;10.792;2023-08-17T04:20:44;9.07;;;5.22;;
44995;SDS011;30729;49.486;10.792;2023-08-17T04:23:09;9.37;;;5.47;;
44995;SDS011;30729;49.486;10.792;2023-08-17T04:25:34;10.73;;;5.77;;
44995;SDS011;30729;49.486;10.792;2023-08-17T04:28:00;10.00;;;4.88;;
44995;SDS011;30729;49.486;10.792;2023-08-17T04:30:25;9.07;;;5.18;;
44995;SDS011;30729;49.486;10.792;2023-08-17T04:32:50;7.38;;;4.95;;
44995;SDS011;30729;49.486;10.792;2023-08-17T04:35:17;9.85;;;5.30;;
44995;SDS011;30729;49.486;10.792;2023-08-17T04:37:43;12.23;;;5.45;;
44995;SDS011;30729;49.486;10.792;2023-08-17T04:40:08;9.80;;;5.40;;
44995;SDS011;30729;49.486;10.792;2023-08-17T04:42:35;10.23;;;5.32;;
44995;SDS011;30729;49.486;10.792;2023-08-17T04:45:00;10.95;;;5.07;;
44995;SDS011;30729;49.486;10.792;2023-08-17T04:47:25;9.90;;;5.23;;
44995;SDS011;30729;49.486;10.792;2023-08-17T04:49:50;7.65;;;5.25;;
44995;SDS011;30729;49.486;10.792;2023-08-17T04:52:15;7.68;;;5.03;;
44995;SDS011;30729;49.486;10.792;2023-08-17T04:54:40;9.63;;;5.77;;
44995;SDS011;30729;49.486;10.792;2023-08-17T04:57:05;10.88;;;5.32;;
44995;SDS011;30729;49.486;10.792;2023-08-17T04:59:31;10.50;;;5.47;;
44995;SDS011;30729;49.486;10.792;2023-08-17T05:01:56;9.75;;;5.63;;
44995;SDS011;30729;49.486;10.792;2023-08-17T05:04:21;11.07;;;5.18;;
44995;SDS011;30729;49.486;10.792;2023-08-17T05:06:46;9.10;;;5.38;;
44995;SDS011;30729;49.486;10.792;2023-08-17T05:09:11;8.50;;;5.27;;
44995;SDS011;30729;49.486;10.792;2023-08-17T05:11:37;8.73;;;5.03;;
44995;SDS011;30729;49.486;10.792;2023-08-17T05:14:02;9.83;;;5.50;;
44995;SDS011;30729;49.486;10.792;2023-08-17T05:16:27;10.75;;;5.65;;
44995;SDS011;30729;49.486;10.792;2023-08-17T05:18:52;9.05;;;5.78;;
44995;SDS011;30729;49.486;10.792;2023-08-17T05:21:17;10.40;;;5.70;;
44995;SDS011;30729;49.486;10.792;2023-08-17T05:23:42;9.63;;;5.43;;
44995;SDS011;30729;49.486;10.792;2023-08-17T05:26:08;10.50;;;5.97;;
44995;SDS011;30729;49.486;10.792;2023-08-17T05:28:33;9.85;;;5.80;;
44995;SDS011;30729;49.486;10.792;2023-08-17T05:31:05;9.60;;;5.95;;
44995;SDS011;30729;49.486;10.792;2023-08-17T05:33:31;9.30;;;5.75;;
44995;SDS011;30729;49.486;10.792;2023-08-17T05:35:56;10.02;;;5.93;;
44995;SDS011;30729;49.486;10.792;2023-08-17T05:38:21;11.43;;;6.30;;
44995;SDS011;30729;49.486;10.792;2023-08-17T05:40:46;9.53;;;5.73;;
44995;SDS011;30729;49.486;10.792;2023-08-17T05:43:11;8.52;;;5.88;;
44995;SDS011;30729;49.486;10.792;2023-08-17T05:45:36;11.20;;;7.63;;
44995;SDS011;30729;49.486;10.792;2023-08-17T05:48:02;10.25;;;7.13;;
44995;SDS011;30729;49.486;10.792;2023-08-17T05:50:27;12.13;;;7.15;;
44995;SDS011;30729;49.486;10.792;2023-08-17T05:52:52;11.82;;;7.72;;
44995;SDS011;30729;49.486;10.792;2023-08-17T05:55:17;12.05;;;7.32;;
44995;SDS011;30729;49.486;10.792;2023-08-17T05:57:42;9.65;;;6.82;;
44995;SDS011;30729;49.486;10.792;2023-08-17T06:00:08;10.50;;;7.15;;
44995;SDS011;30729;49.486;10.792;2023-08-17T06:02:35;10.88;;;6.70;;
44995;SDS011;30729;49.486;10.792;2023-08-17T06:05:00;9.87;;;6.83;;
44995;SDS011;30729;49.486;10.792;2023-08-17T06:07:25;13.90;;;6.80;;
44995;SDS011;30729;49.486;10.792;2023-08-17T06:09:51;11.80;;;7.00;;
44995;SDS011;30729;49.486;10.792;2023-08-17T06:12:16;9.27;;;6.50;;
44995;SDS011;30729;49.486;10.792;2023-08-17T06:14:42;12.27;;;6.78;;
44995;SDS011;30729;49.486;10.792;2023-08-17T06:17:07;10.32;;;6.18;;
44995;SDS011;30729;49.486;10.792;2023-08-17T06:19:32;11.63;;;6.90;;
44995;SDS011;30729;49.486;10.792;2023-08-17T06:21:58;11.95;;;6.63;;
44995;SDS011;30729;49.486;10.792;2023-08-17T06:24:23;11.10;;;7.25;;
44995;SDS011;30729;49.486;10.792;2023-08-17T06:26:48;13.07;;;6.70;;
44995;SDS011;30729;49.486;10.792;2023-08-17T06:29:14;11.15;;;7.60;;
44995;SDS011;30729;49.486;10.792;2023-08-17T06:31:39;11.73;;;7.25;;
44995;SDS011;30729;49.486;10.792;2023-08-17T06:34:04;14.23;;;7.27;;
44995;SDS011;30729;49.486;10.792;2023-08-17T06:36:32;10.55;;;6.70;;
44995;SDS011;30729;49.486;10.792;2023-08-17T06:38:58;14.77;;;7.25;;
44995;SDS011;30729;49.486;10.792;2023-08-17T06:41:23;10.45;;;7.30;;
44995;SDS011;30729;49.486;10.792;2023-08-17T06:43:49;11.27;;;7.25;;
44995;SDS011;30729;49.486;10.792;2023-08-17T06:46:14;11.70;;;7.10;;
44995;SDS011;30729;49.486;10.792;2023-08-17T06:48:39;11.70;;;7.20;;
44995;SDS011;30729;49.486;10.792;2023-08-17T06:51:05;12.33;;;7.97;;
44995;SDS011;30729;49.486;10.792;2023-08-17T06:53:30;14.10;;;7.07;;
44995;SDS011;30729;49.486;10.792;2023-08-17T06:55:55;11.50;;;6.95;;
44995;SDS011;30729;49.486;10.792;2023-08-17T06:58:20;9.97;;;6.60;;
44995;SDS011;30729;49.486;10.792;2023-08-17T07:00:45;11.85;;;7.10;;
44995;SDS011;30729;49.486;10.792;2023-08-17T07:03:11;11.53;;;7.30;;
44995;SDS011;30729;49.486;10.792;2023-08-17T07:05:36;12.35;;;7.55;;
44995;SDS011;30729;49.486;10.792;2023-08-17T07:08:01;12.45;;;6.90;;
44995;SDS011;30729;49.486;10.792;2023-08-17T07:10:27;12.13;;;7.13;;
44995;SDS011;30729;49.486;10.792;2023-08-17T07:12:52;10.40;;;7.07;;
44995;SDS011;30729;49.486;10.792;2023-08-17T07:15:18;11.40;;;7.30;;
44995;SDS011;30729;49.486;10.792;2023-08-17T07:17:43;10.40;;;7.03;;
44995;SDS011;30729;49.486;10.792;2023-08-17T07:20:08;9.40;;;6.93;;
44995;SDS011;30729;49.486;10.792;2023-08-17T07:22:34;10.68;;;7.72;;
44995;SDS011;30729;49.486;10.792;2023-08-17T07:25:00;10.82;;;7.20;;
44995;SDS011;30729;49.486;10.792;2023-08-17T07:27:25;10.70;;;7.27;;
44995;SDS011;30729;49.486;10.792;2023-08-17T07:29:50;12.88;;;7.50;;
44995;SDS011;30729;49.486;10.792;2023-08-17T07:32:15;12.88;;;7.95;;
44995;SDS011;30729;49.486;10.792;2023-08-17T07:34:41;9.85;;;6.70;;
44995;SDS011;30729;49.486;10.792;2023-08-17T07:37:06;11.77;;;6.93;;
44995;SDS011;30729;49.486;10.792;2023-08-17T07:39:31;9.82;;;6.53;;
44995;SDS011;30729;49.486;10.792;2023-08-17T07:41:57;11.88;;;7.80;;
44995;SDS011;30729;49.486;10.792;2023-08-17T07:44:22;10.90;;;6.70;;
44995;SDS011;30729;49.486;10.792;2023-08-17T07:46:47;10.60;;;7.18;;
44995;SDS011;30729;49.486;10.792;2023-08-17T07:49:12;9.87;;;7.47;;
44995;SDS011;30729;49.486;10.792;2023-08-17T07:51:37;10.98;;;6.97;;
44995;SDS011;30729;49.486;10.792;2023-08-17T07:54:03;10.25;;;7.03;;
44995;SDS011;30729;49.486;10.792;2023-08-17T07:56:28;11.05;;;7.38;;
44995;SDS011;30729;49.486;10.792;2023-08-17T07:58:53;11.40;;;7.43;;
44995;SDS011;30729;49.486;10.792;2023-08-17T08:01:19;11.15;;;6.75;;
44995;SDS011;30729;49.486;10.792;2023-08-17T08:03:44;13.37;;;7.30;;
44995;SDS011;30729;49.486;10.792;2023-08-17T08:06:09;10.70;;;7.18;;
44995;SDS011;30729;49.486;10.792;2023-08-17T08:08:34;9.30;;;6.60;;
44995;SDS011;30729;49.486;10.792;2023-08-17T08:10:59;10.93;;;7.67;;
44995;SDS011;30729;49.486;10.792;2023-08-17T08:13:24;11.77;;;6.82;;
44995;SDS011;30729;49.486;10.792;2023-08-17T08:15:50;9.30;;;6.93;;
44995;SDS011;30729;49.486;10.792;2023-08-17T08:18:15;10.68;;;7.05;;
44995;SDS011;30729;49.486;10.792;2023-08-17T08:20:40;12.70;;;7.40;;
44995;SDS011;30729;49.486;10.792;2023-08-17T08:23:06;9.90;;;6.63;;
44995;SDS011;30729;49.486;10.792;2023-08-17T08:25:31;10.63;;;7.30;;
44995;SDS011;30729;49.486;10.792;2023-08-17T08:27:56;11.57;;;6.65;;
44995;SDS011;30729;49.486;10.792;2023-08-17T08:30:21;12.00;;;7.47;;
44995;SDS011;30729;49.486;10.792;2023-08-17T08:32:46;11.90;;;7.40;;
44995;SDS011;30729;49.486;10.792;2023-08-17T08:35:12;13.03;;;7.77;;
44995;SDS011;30729;49.486;10.792;2023-08-17T08:37:37;13.80;;;7.90;;
44995;SDS011;30729;49.486;10.792;2023-08-17T08:40:02;11.77;;;7.18;;
44995;SDS011;30729;49.486;10.792;2023-08-17T08:42:27;11.05;;;6.90;;
44995;SDS011;30729;49.486;10.792;2023-08-17T08:44:53;11.50;;;7.03;;
44995;SDS011;30729;49.486;10.792;2023-08-17T08:47:18;11.75;;;7.55;;
44995;SDS011;30729;49.486;10.792;2023-08-17T08:49:49;12.73;;;7.18;;
44995;SDS011;30729;49.486;10.792;2023-08-17T08:52:16;12.60;;;7.05;;
44995;SDS011;30729;49.486;10.792;2023-08-17T08:54:44;12.18;;;7.55;;
44995;SDS011;30729;49.486;10.792;2023-08-17T08:57:12;12.10;;;7.50;;
44995;SDS011;30729;49.486;10.792;2023-08-17T08:59:37;11.73;;;7.15;;
44995;SDS011;30729;49.486;10.792;2023-08-17T09:02:09;10.90;;;7.57;;
44995;SDS011;30729;49.486;10.792;2023-08-17T09:04:34;10.57;;;8.05;;
44995;SDS011;30729;49.486;10.792;2023-08-17T09:07:00;11.07;;;6.95;;
44995;SDS011;30729;49.486;10.792;2023-08-17T09:09:25;9.43;;;7.22;;
44995;SDS011;30729;49.486;10.792;2023-08-17T09:11:50;10.67;;;7.60;;
44995;SDS011;30729;49.486;10.792;2023-08-17T09:14:15;9.87;;;7.60;;
44995;SDS011;30729;49.486;10.792;2023-08-17T09:16:41;9.80;;;7.50;;
44995;SDS011;30729;49.486;10.792;2023-08-17T09:21:56;9.02;;;7.10;;
44995;SDS011;30729;49.486;10.792;2023-08-17T09:24:21;11.27;;;8.53;;
44995;SDS011;30729;49.486;10.792;2023-08-17T09:26:46;11.48;;;7.53;;
44995;SDS011;30729;49.486;10.792;2023-08-17T09:29:16;10.48;;;7.68;;
44995;SDS011;30729;49.486;10.792;2023-08-17T09:31:41;10.13;;;7.82;;
44995;SDS011;30729;49.486;10.792;2023-08-17T09:34:06;10.90;;;7.35;;
44995;SDS011;30729;49.486;10.792;2023-08-17T09:36:31;11.10;;;7.72;;
44995;SDS011;30729;49.486;10.792;2023-08-17T09:38:59;11.60;;;8.38;;
44995;SDS011;30729;49.486;10.792;2023-08-17T09:41:26;11.02;;;8.75;;
44995;SDS011;30729;49.486;10.792;2023-08-17T09:43:51;8.97;;;7.97;;
44995;SDS011;30729;49.486;10.792;2023-08-17T09:46:17;12.97;;;8.27;;
44995;SDS011;30729;49.486;10.792;2023-08-17T09:48:43;11.77;;;8.32;;
44995;SDS011;30729;49.486;10.792;2023-08-17T09:51:09;11.25;;;8.77;;
44995;SDS011;30729;49.486;10.792;2023-08-17T09:53:35;9.68;;;8.30;;
44995;SDS011;30729;49.486;10.792;2023-08-17T09:56:02;9.77;;;8.20;;
44995;SDS011;30729;49.486;10.792;2023-08-17T09:58:27;10.77;;;8.93;;
44995;SDS011;30729;49.486;10.792;2023-08-17T10:00:52;10.60;;;9.17;;
44995;SDS011;30729;49.486;10.792;2023-08-17T10:03:19;10.82;;;8.88;;
44995;SDS011;30729;49.486;10.792;2023-08-17T10:05:45;11.98;;;9.20;;
44995;SDS011;30729;49.486;10.792;2023-08-17T10:08:12;11.98;;;9.35;;
44995;SDS011;30729;49.486;10.792;2023-08-17T10:10:38;9.77;;;8.35;;
44995;SDS011;30729;49.486;10.792;2023-08-17T10:13:11;10.95;;;8.65;;
44995;SDS011;30729;49.486;10.792;2023-08-17T10:15:41;11.25;;;9.20;;
44995;SDS011;30729;49.486;10.792;2023-08-17T10:18:09;10.77;;;8.43;;
44995;SDS011;30729;49.486;10.792;2023-08-17T10:20:37;9.55;;;8.50;;
44995;SDS011;30729;49.486;10.792;2023-08-17T10:23:15;11.50;;;8.80;;
44995;SDS011;30729;49.486;10.792;2023-08-17T10:25:42;8.77;;;7.88;;
44995;SDS011;30729;49.486;10.792;2023-08-17T10:28:08;9.65;;;8.43;;
44995;SDS011;30729;49.486;10.792;2023-08-17T10:30:34;11.98;;;9.05;;
44995;SDS011;30729;49.486;10.792;2023-08-17T10:32:59;11.23;;;9.07;;
44995;SDS011;30729;49.486;10.792;2023-08-17T10:35:25;9.23;;;8.23;;
44995;SDS011;30729;49.486;10.792;2023-08-17T10:37:51;11.40;;;9.88;;
44995;SDS011;30729;49.486;10.792;2023-08-17T10:40:16;10.70;;;9.50;;
44995;SDS011;30729;49.486;10.792;2023-08-17T10:42:41;11.57;;;10.37;;
44995;SDS011;30729;49.486;10.792;2023-08-17T10:47:51;10.35;;;9.35;;
44995;SDS011;30729;49.486;10.792;2023-08-17T10:50:24;12.23;;;11.23;;
44995;SDS011;30729;49.486;10.792;2023-08-17T10:52:50;9.55;;;8.65;;
44995;SDS011;30729;49.486;10.792;2023-08-17T10:55:16;9.90;;;8.68;;
44995;SDS011;30729;49.486;10.792;2023-08-17T10:57:43;10.45;;;7.57;;
44995;SDS011;30729;49.486;10.792;2023-08-17T11:02:35;9.40;;;7.97;;
44995;SDS011;30729;49.486;10.792;2023-08-17T11:05:01;8.57;;;7.68;;
44995;SDS011;30729;49.486;10.792;2023-08-17T11:07:27;8.83;;;7.70;;
44995;SDS011;30729;49.486;10.792;2023-08-17T11:09:53;10.32;;;7.60;;
44995;SDS011;30729;49.486;10.792;2023-08-17T11:12:25;9.80;;;8.80;;
44995;SDS011;30729;49.486;10.792;2023-08-17T11:14:50;11.15;;;9.20;;
44995;SDS011;30729;49.486;10.792;2023-08-17T11:17:15;9.65;;;8.55;;
44995;SDS011;30729;49.486;10.792;2023-08-17T11:19:40;10.43;;;8.88;;
44995;SDS011;30729;49.486;10.792;2023-08-17T11:22:05;9.32;;;8.10;;
44995;SDS011;30729;49.486;10.792;2023-08-17T11:24:31;9.95;;;7.80;;
44995;SDS011;30729;49.486;10.792;2023-08-17T11:26:56;32.45;;;27.52;;
44995;SDS011;30729;49.486;10.792;2023-08-17T11:29:21;11.45;;;8.57;;
44995;SDS011;30729;49.486;10.792;2023-08-17T11:31:49;9.55;;;7.75;;
44995;SDS011;30729;49.486;10.792;2023-08-17T11:34:14;11.48;;;8.52;;
44995;SDS011;30729;49.486;10.792;2023-08-17T11:36:40;10.75;;;8.30;;
44995;SDS011;30729;49.486;10.792;2023-08-17T11:39:05;10.05;;;9.07;;
44995;SDS011;30729;49.486;10.792;2023-08-17T11:41:30;12.00;;;8.45;;
44995;SDS011;30729;49.486;10.792;2023-08-17T11:43:56;9.77;;;8.77;;
44995;SDS011;30729;49.486;10.792;2023-08-17T11:46:23;10.32;;;9.40;;
44995;SDS011;30729;49.486;10.792;2023-08-17T11:48:50;10.40;;;9.40;;
44995;SDS011;30729;49.486;10.792;2023-08-17T11:51:27;11.82;;;10.75;;
44995;SDS011;30729;49.486;10.792;2023-08-17T11:53:52;13.90;;;12.68;;
44995;SDS011;30729;49.486;10.792;2023-08-17T11:56:17;12.88;;;11.75;;
44995;SDS011;30729;49.486;10.792;2023-08-17T11:58:43;14.60;;;13.20;;
44995;SDS011;30729;49.486;10.792;2023-08-17T12:01:09;14.00;;;12.90;;
44995;SDS011;30729;49.486;10.792;2023-08-17T12:03:35;15.95;;;14.65;;
44995;SDS011;30729;49.486;10.792;2023-08-17T12:06:00;15.00;;;13.63;;
44995;SDS011;30729;49.486;10.792;2023-08-17T12:08:25;14.30;;;13.10;;
44995;SDS011;30729;49.486;10.792;2023-08-17T12:10:50;13.70;;;12.47;;
44995;SDS011;30729;49.486;10.792;2023-08-17T12:13:17;16.55;;;15.35;;
44995;SDS011;30729;49.486;10.792;2023-08-17T12:15:42;15.88;;;14.77;;
44995;SDS011;30729;49.486;10.792;2023-08-17T12:18:07;19.10;;;17.60;;
44995;SDS011;30729;49.486;10.792;2023-08-17T12:20:32;17.50;;;15.98;;
44995;SDS011;30729;49.486;10.792;2023-08-17T12:23:00;20.40;;;19.05;;
44995;SDS011;30729;49.486;10.792;2023-08-17T12:25:26;19.00;;;17.60;;
44995;SDS011;30729;49.486;10.792;2023-08-17T12:27:52;17.10;;;15.82;;
44995;SDS011;30729;49.486;10.792;2023-08-17T12:30:30;14.97;;;13.83;;
44995;SDS011;30729;49.486;10.792;2023-08-17T12:32:57;15.95;;;14.68;;
44995;SDS011;30729;49.486;10.792;2023-08-17T12:35:22;12.47;;;11.40;;
44995;SDS011;30729;49.486;10.792;2023-08-17T12:37:49;12.80;;;11.60;;
44995;SDS011;30729;49.486;10.792;2023-08-17T12:40:14;12.07;;;11.07;;
44995;SDS011;30729;49.486;10.792;2023-08-17T12:42:39;11.80;;;10.27;;
44995;SDS011;30729;49.486;10.792;2023-08-17T12:45:04;14.63;;;9.73;;
44995;SDS011;30729;49.486;10.792;2023-08-17T12:47:30;10.63;;;9.63;;
44995;SDS011;30729;49.486;10.792;2023-08-17T12:49:55;9.85;;;8.95;;
44995;SDS011;30729;49.486;10.792;2023-08-17T12:52:20;9.60;;;8.03;;
44995;SDS011;30729;49.486;10.792;2023-08-17T12:54:45;10.48;;;8.25;;
44995;SDS011;30729;49.486;10.792;2023-08-17T12:57:11;9.70;;;8.70;;
44995;SDS011;30729;49.486;10.792;2023-08-17T12:59:36;9.13;;;8.10;;
44995;SDS011;30729;49.486;10.792;2023-08-17T13:02:01;9.70;;;8.77;;
44995;SDS011;30729;49.486;10.792;2023-08-17T13:04:27;10.27;;;9.27;;
44995;SDS011;30729;49.486;10.792;2023-08-17T13:06:52;13.30;;;9.60;;
44995;SDS011;30729;49.486;10.792;2023-08-17T13:09:18;9.35;;;7.65;;
44995;SDS011;30729;49.486;10.792;2023-08-17T13:11:44;9.68;;;8.43;;
44995;SDS011;30729;49.486;10.792;2023-08-17T13:14:09;9.20;;;8.05;;
44995;SDS011;30729;49.486;10.792;2023-08-17T13:16:34;8.37;;;7.37;;
44995;SDS011;30729;49.486;10.792;2023-08-17T13:18:59;11.60;;;8.43;;
44995;SDS011;30729;49.486;10.792;2023-08-17T13:21:24;9.93;;;8.15;;
44995;SDS011;30729;49.486;10.792;2023-08-17T13:23:49;9.75;;;8.73;;
44995;SDS011;30729;49.486;10.792;2023-08-17T13:26:15;9.70;;;8.70;;
44995;SDS011;30729;49.486;10.792;2023-08-17T13:28:40;10.45;;;9.45;;
44995;SDS011;30729;49.486;10.792;2023-08-17T13:31:05;10.77;;;9.05;;
44995;SDS011;30729;49.486;10.792;2023-08-17T13:33:30;10.83;;;9.73;;
44995;SDS011;30729;49.486;10.792;2023-08-17T13:35:55;10.70;;;9.60;;
44995;SDS011;30729;49.486;10.792;2023-08-17T13:38:20;10.77;;;9.67;;
44995;SDS011;30729;49.486;10.792;2023-08-17T13:40:46;10.25;;;9.25;;
44995;SDS011;30729;49.486;10.792;2023-08-17T13:43:11;11.03;;;9.93;;
44995;SDS011;30729;49.486;10.792;2023-08-17T13:45:39;9.82;;;8.77;;
44995;SDS011;30729;49.486;10.792;2023-08-17T13:48:05;12.90;;;10.13;;
44995;SDS011;30729;49.486;10.792;2023-08-17T13:50:30;12.52;;;10.70;;
44995;SDS011;30729;49.486;10.792;2023-08-17T13:52:55;11.57;;;10.45;;
44995;SDS011;30729;49.486;10.792;2023-08-17T13:55:21;11.15;;;9.00;;
44995;SDS011;30729;49.486;10.792;2023-08-17T13:57:46;10.73;;;8.23;;
44995;SDS011;30729;49.486;10.792;2023-08-17T14:00:12;10.40;;;7.88;;
44995;SDS011;30729;49.486;10.792;2023-08-17T14:02:37;9.23;;;8.20;;
44995;SDS011;30729;49.486;10.792;2023-08-17T14:05:02;8.82;;;7.32;;
44995;SDS011;30729;49.486;10.792;2023-08-17T14:07:27;9.77;;;7.50;;
44995;SDS011;30729;49.486;10.792;2023-08-17T14:09:53;8.98;;;7.88;;
44995;SDS011;30729;49.486;10.792;2023-08-17T14:12:18;9.57;;;8.50;;
44995;SDS011;30729;49.486;10.792;2023-08-17T14:14:43;9.33;;;8.43;;
44995;SDS011;30729;49.486;10.792;2023-08-17T14:17:08;10.23;;;8.40;;
44995;SDS011;30729;49.486;10.792;2023-08-17T14:19:33;10.00;;;8.63;;
44995;SDS011;30729;49.486;10.792;2023-08-17T14:21:58;10.18;;;9.25;;
44995;SDS011;30729;49.486;10.792;2023-08-17T14:24:25;9.80;;;7.90;;